Time;durP1;ratioP1;P1;durP2;ratioP2;P2;SDS_P1;SDS_P2;PMS_P1;PMS_P2;Temp;Humidity;BMP_temperature;BMP_pressure;BME280_temperature;BME280_humidity;BME280_pressure;Samples;Min_cycle;Max_cycle;Signal;HPM_P1;HPM_P2
2021/03/20 00:00:22;;;;;;;5.30;2.30;;;;;;;-2.54;75.73;100963.92;99429;1175;88060;-64
2021/03/20 00:02:43;;;;;;;6.90;2.90;;;;;;;-2.53;75.65;100973.55;99455;1172;74757;-64
2021/03/20 00:04:49;;;;;;;8.20;3.00;;;;;;;-2.56;76.09;100959.67;99446;1167;89556;-63
2021/03/20 00:06:57;;;;;;;5.40;2.50;;;;;;;-2.58;76.33;100961.57;99433;1175;82282;-61
2021/03/20 00:09:08;;;;;;;6.73;2.90;;;;;;;-2.60;75.55;100968.72;99441;1171;67006;-61
2021/03/20 00:11:15;;;;;;;7.55;3.20;;;;;;;-2.60;76.19;100966.08;99431;1172;86693;-62
2021/03/20 00:13:23;;;;;;;6.10;3.20;;;;;;;-2.57;75.44;100973.83;99442;1172;74665;-63
2021/03/20 00:15:29;;;;;;;5.45;2.50;;;;;;;-2.60;75.85;100963.44;99454;1173;88301;-64
2021/03/20 00:17:34;;;;;;;6.17;2.77;;;;;;;-2.53;75.55;100965.61;99430;1175;83203;-64
2021/03/20 00:19:41;;;;;;;7.23;2.50;;;;;;;-2.56;75.71;100962.32;99437;1172;67099;-62
2021/03/20 00:21:46;;;;;;;8.30;3.10;;;;;;;-2.52;75.71;100971.75;99430;1175;86770;-63
2021/03/20 00:23:51;;;;;;;6.75;2.90;;;;;;;-2.54;75.49;100968.36;99465;1175;75756;-63
2021/03/20 00:25:57;;;;;;;7.00;2.70;;;;;;;-2.54;75.48;100979.80;99430;1175;89050;-62
2021/03/20 00:28:07;;;;;;;5.45;2.65;;;;;;;-2.54;75.31;100969.22;99416;1175;81774;-63
2021/03/20 00:30:18;;;;;;;5.40;2.60;;;;;;;-2.56;75.24;100967.61;99440;1175;66972;-66
2021/03/20 00:32:27;;;;;;;4.85;1.80;;;;;;;-2.61;75.53;100970.51;99445;1175;87211;-66
2021/03/20 00:34:33;;;;;;;5.60;2.30;;;;;;;-2.63;75.51;100968.91;99466;1175;75642;-66
2021/03/20 00:36:41;;;;;;;8.80;2.30;;;;;;;-2.62;75.15;100967.97;99436;1175;89778;-66
2021/03/20 00:38:46;;;;;;;6.30;2.50;;;;;;;-2.63;75.21;100971.55;99427;1175;82699;-63
2021/03/20 00:40:55;;;;;;;4.60;2.50;;;;;;;-2.64;75.39;100965.44;99443;1168;67036;-62
2021/03/20 00:43:01;;;;;;;5.55;2.45;;;;;;;-2.61;75.31;100973.16;99442;1172;86537;-62
2021/03/20 00:45:11;;;;;;;5.20;1.80;;;;;;;-2.61;75.48;100967.86;99448;1175;76040;-63
2021/03/20 00:47:16;;;;;;;6.40;2.50;;;;;;;-2.60;75.66;100980.16;99427;1174;90028;-63
2021/03/20 00:49:21;;;;;;;6.80;2.50;;;;;;;-2.65;74.89;100976.08;99420;1171;82060;-66
2021/03/20 00:51:26;;;;;;;6.25;2.60;;;;;;;-2.69;75.51;100977.23;99459;1175;66915;-65
2021/03/20 00:53:32;;;;;;;6.30;2.40;;;;;;;-2.72;75.48;100975.59;99439;1171;86642;-65
2021/03/20 00:55:40;;;;;;;4.75;2.30;;;;;;;-2.68;75.69;100977.12;99453;1172;74730;-62
2021/03/20 00:57:45;;;;;;;10.60;3.50;;;;;;;-2.72;75.64;100972.94;99447;1175;89778;-63
2021/03/20 00:59:50;;;;;;;5.10;2.80;;;;;;;-2.68;75.47;100978.91;99419;1174;82131;-64
2021/03/20 01:01:57;;;;;;;6.07;2.83;;;;;;;-2.69;75.24;100977.23;99446;1171;66852;-65
2021/03/20 01:04:02;;;;;;;9.20;3.95;;;;;;;-2.68;76.10;100979.77;99439;1172;86285;-65
2021/03/20 01:06:10;;;;;;;8.10;3.60;;;;;;;-2.69;75.72;100979.88;99457;1175;74603;-65
2021/03/20 01:08:16;;;;;;;12.30;5.80;;;;;;;-2.69;75.86;100977.23;99441;1168;89497;-65
2021/03/20 01:10:23;;;;;;;12.50;5.20;;;;;;;-2.70;76.06;100979.02;99423;1168;81558;-65
2021/03/20 01:12:28;;;;;;;15.95;8.55;;;;;;;-2.71;75.54;100976.44;99437;1175;66775;-66
2021/03/20 01:14:34;;;;;;;19.95;13.00;;;;;;;-2.76;75.69;100979.38;99423;1173;86728;-66
2021/03/20 01:16:39;;;;;;;11.65;5.20;;;;;;;-2.68;75.24;100977.12;99452;1174;74493;-65
2021/03/20 01:18:47;;;;;;;8.10;3.70;;;;;;;-2.69;75.58;100975.41;99451;1167;89033;-62
2021/03/20 01:20:53;;;;;;;35.15;21.30;;;;;;;-2.71;75.59;100976.44;99418;1173;81775;-62
2021/03/20 01:22:58;;;;;;;19.45;12.40;;;;;;;-2.69;75.64;100983.34;99461;1175;67133;-62
2021/03/20 01:25:05;;;;;;;29.70;17.35;;;;;;;-2.64;75.85;100980.44;99434;1175;87951;-63
2021/03/20 01:27:11;;;;;;;13.37;7.90;;;;;;;-2.65;75.53;100976.94;99451;1168;75135;-63
2021/03/20 01:29:16;;;;;;;10.90;5.50;;;;;;;-2.56;75.50;100981.69;99446;1175;89109;-63
2021/03/20 01:31:21;;;;;;;18.47;11.73;;;;;;;-2.56;75.68;100976.41;99426;1174;82153;-63
2021/03/20 01:33:28;;;;;;;21.40;13.30;;;;;;;-2.56;75.91;100983.48;99448;1172;66968;-64
2021/03/20 01:35:37;;;;;;;24.67;17.90;;;;;;;-2.55;75.36;100977.22;99439;1173;86622;-65
2021/03/20 01:37:42;;;;;;;23.15;15.60;;;;;;;-2.63;75.65;100984.77;99448;1167;74686;-65
2021/03/20 01:39:48;;;;;;;11.70;6.53;;;;;;;-2.68;76.35;100976.27;99450;1175;89805;-62
2021/03/20 01:41:53;;;;;;;16.50;11.50;;;;;;;-2.74;75.78;100981.91;99431;1174;82829;-63
2021/03/20 01:43:58;;;;;;;21.83;15.67;;;;;;;-2.71;76.43;100982.59;99441;1172;66879;-63
2021/03/20 01:46:40;;;;;;;10.90;6.30;;;;;;;-2.68;75.72;100984.20;99429;1175;87627;-64
2021/03/20 01:48:45;;;;;;;13.25;7.90;;;;;;;-2.63;76.18;100979.48;99500;1157;75884;-65
2021/03/20 01:50:56;;;;;;;14.45;9.60;;;;;;;-2.63;75.84;100985.63;99438;1171;89152;-65
2021/03/20 01:53:14;;;;;;;11.70;6.90;;;;;;;-2.69;75.93;100987.80;99534;1170;81645;-62
2021/03/20 01:55:24;;;;;;;9.90;6.80;;;;;;;-2.69;75.87;100993.91;99562;1171;66894;-62
2021/03/20 01:57:38;;;;;;;27.73;18.30;;;;;;;-2.71;76.21;100989.66;99565;1172;87499;-64
2021/03/20 01:59:43;;;;;;;22.25;12.15;;;;;;;-2.64;76.14;100986.59;99571;1172;75602;-64
2021/03/20 02:01:49;;;;;;;21.70;14.20;;;;;;;-2.65;76.36;100990.16;99546;1171;88711;-65
2021/03/20 02:03:56;;;;;;;14.40;8.20;;;;;;;-2.63;75.79;100990.91;99431;1168;82170;-64
2021/03/20 02:06:02;;;;;;;15.70;9.10;;;;;;;-2.63;75.59;100998.84;99448;1174;66853;-64
2021/03/20 02:08:13;;;;;;;20.10;13.20;;;;;;;-2.69;75.69;100998.38;99440;1174;88225;-64
2021/03/20 02:10:19;;;;;;;18.35;11.25;;;;;;;-2.74;75.74;100992.48;99445;1175;76370;-64
2021/03/20 02:12:30;;;;;;;18.10;11.60;;;;;;;-2.73;76.02;100994.20;99547;1171;89970;-63
2021/03/20 02:14:46;;;;;;;15.90;9.37;;;;;;;-2.77;75.96;100996.16;99441;1172;81992;-64
2021/03/20 02:17:00;;;;;;;16.50;10.80;;;;;;;-2.75;76.00;100999.59;99455;1174;67295;-65
2021/03/20 02:19:23;;;;;;;13.75;7.95;;;;;;;-2.78;75.92;101001.55;99432;1168;87512;-64
2021/03/20 02:21:35;;;;;;;22.17;12.40;;;;;;;-2.73;75.39;101008.27;99464;1174;74582;-65
2021/03/20 02:24:11;;;;;;;24.60;15.00;;;;;;;-2.72;75.66;101009.13;99557;1172;89114;-62
2021/03/20 02:27:19;;;;;;;10.40;6.50;;;;;;;-2.72;75.46;101006.48;99529;1167;82127;-63
2021/03/20 02:29:50;;;;;;;65.70;26.85;;;;;;;-2.75;75.18;101007.52;99476;1167;66970;-62
2021/03/20 02:32:30;;;;;;;66.55;24.65;;;;;;;-2.78;75.64;101017.42;99547;1167;87466;-63
2021/03/20 02:34:47;;;;;;;73.50;28.10;;;;;;;-2.70;75.00;101007.23;99562;1172;74918;-65
2021/03/20 02:37:03;;;;;;;47.10;19.50;;;;;;;-2.70;75.70;101015.17;99536;1172;89663;-66
2021/03/20 02:39:30;;;;;;;19.90;9.53;;;;;;;-2.70;75.12;101013.39;99562;1172;81716;-63
2021/03/20 02:41:46;;;;;;;21.25;9.20;;;;;;;-2.70;75.14;101020.46;99565;1172;67089;-63
2021/03/20 02:44:00;;;;;;;27.00;11.35;;;;;;;-2.64;75.67;101020.11;99550;1172;86832;-65
2021/03/20 02:46:14;;;;;;;36.47;15.73;;;;;;;-2.68;74.92;101008.85;99564;1171;74969;-65
2021/03/20 02:48:26;;;;;;;24.60;13.97;;;;;;;-2.70;74.89;101029.25;99550;1172;89394;-63
2021/03/20 02:50:42;;;;;;;57.70;29.10;;;;;;;-2.69;75.17;101022.17;99533;1168;83005;-63
2021/03/20 02:52:54;;;;;;;37.75;22.20;;;;;;;-2.77;75.32;101025.24;99446;1168;67303;-64
2021/03/20 02:55:07;;;;;;;31.40;19.25;;;;;;;-2.75;74.58;101027.81;99540;1172;87624;-63
2021/03/20 02:57:22;;;;;;;19.70;11.40;;;;;;;-2.80;74.88;101035.17;99570;1172;75844;-64
2021/03/20 02:59:31;;;;;;;9.15;6.85;;;;;;;-2.80;74.56;101032.52;99564;1172;88292;-64
2021/03/20 03:01:40;;;;;;;10.30;6.45;;;;;;;-2.79;74.77;101027.13;99560;1172;82931;-64
2021/03/20 03:03:48;;;;;;;73.90;29.90;;;;;;;-2.80;75.10;101037.81;99572;1168;66904;-64
2021/03/20 03:06:06;;;;;;;91.80;35.30;;;;;;;-2.81;74.57;101042.24;99546;1172;87725;-64
2021/03/20 03:08:16;;;;;;;66.15;25.70;;;;;;;-2.83;74.36;101044.09;99527;1168;75324;-65
2021/03/20 03:10:28;;;;;;;54.10;19.55;;;;;;;-2.81;74.25;101044.03;99479;1172;89210;-64
2021/03/20 03:12:42;;;;;;;60.20;22.30;;;;;;;-2.83;74.10;101053.84;99426;1171;81935;-63
2021/03/20 03:14:56;;;;;;;72.37;30.77;;;;;;;-2.84;74.38;101054.77;99444;1168;67102;-63
2021/03/20 03:17:04;;;;;;;61.65;26.75;;;;;;;-2.87;74.11;101050.52;99439;1174;87242;-63
2021/03/20 03:19:14;;;;;;;39.45;17.20;;;;;;;-2.83;74.61;101067.89;99436;1174;75818;-64
2021/03/20 03:21:23;;;;;;;31.30;12.75;;;;;;;-2.82;74.06;101058.17;99438;1174;90004;-64
2021/03/20 03:23:33;;;;;;;51.15;20.15;;;;;;;-2.90;74.51;101063.91;99421;1174;83117;-63
2021/03/20 03:26:33;;;;;;;30.75;13.50;;;;;;;-2.94;74.63;101064.19;99453;1171;67159;-61
2021/03/20 03:28:40;;;;;;;84.35;32.05;;;;;;;-2.98;73.75;101063.50;99443;1167;87034;-61
2021/03/20 03:30:48;;;;;;;50.95;18.65;;;;;;;-2.92;74.41;101059.66;99454;1174;76143;-63
2021/03/20 03:32:59;;;;;;;34.80;14.15;;;;;;;-2.97;73.74;101062.57;99442;1174;89834;-64
2021/03/20 03:35:13;;;;;;;13.70;6.43;;;;;;;-2.94;74.24;101066.83;99434;1174;82226;-64
2021/03/20 03:37:28;;;;;;;13.80;6.30;;;;;;;-3.03;74.36;101084.91;99449;1167;67146;-63
2021/03/20 03:39:46;;;;;;;20.70;9.00;;;;;;;-3.01;73.92;101080.38;99433;1168;87883;-63
2021/03/20 03:41:51;;;;;;;24.70;12.00;;;;;;;-2.97;74.25;101091.64;99454;1171;75143;-63
2021/03/20 03:44:00;;;;;;;27.90;12.10;;;;;;;-2.96;73.89;101085.40;99449;1175;88881;-64
2021/03/20 03:46:07;;;;;;;22.70;10.05;;;;;;;-3.01;73.72;101080.38;99462;1171;81845;-63
2021/03/20 03:48:15;;;;;;;17.90;8.30;;;;;;;-3.05;73.80;101088.58;99476;1174;66806;-63
2021/03/20 03:50:26;;;;;;;12.50;7.10;;;;;;;-3.05;73.71;101091.22;99454;1172;87610;-63
2021/03/20 03:52:31;;;;;;;15.30;8.20;;;;;;;-3.06;74.37;101093.01;99470;1172;74450;-62
2021/03/20 03:54:37;;;;;;;14.00;8.20;;;;;;;-3.11;74.11;101097.70;99474;1171;89390;-62
2021/03/20 03:57:28;;;;;;;26.80;13.85;;;;;;;-3.09;74.21;101098.46;99460;1174;82103;-63
2021/03/20 03:59:55;;;;;;;18.70;8.60;;;;;;;-3.13;74.36;101102.20;99461;1174;67445;-62
2021/03/20 04:02:12;;;;;;;28.95;13.60;;;;;;;-3.11;73.69;101094.20;99472;1172;87541;-62
2021/03/20 04:04:40;;;;;;;19.40;9.65;;;;;;;-3.09;73.76;101095.82;99459;1172;75504;-63
2021/03/20 04:07:14;;;;;;;12.20;6.45;;;;;;;-3.08;73.52;101094.86;99486;1172;89056;-63
2021/03/20 04:09:34;;;;;;;11.08;5.10;;;;;;;-3.16;73.75;101102.37;99438;1168;82195;-63
2021/03/20 04:11:48;;;;;;;35.70;15.10;;;;;;;-3.19;73.57;101097.28;99471;1171;67150;-64
2021/03/20 04:14:09;;;;;;;68.77;22.93;;;;;;;-3.18;73.72;101096.33;99443;1174;86633;-64
2021/03/20 04:16:18;;;;;;;33.00;11.50;;;;;;;-3.21;73.67;101104.41;99436;1172;75120;-62
2021/03/20 04:18:37;;;;;;;74.05;21.95;;;;;;;-3.21;73.55;101096.48;99435;1174;89763;-62
2021/03/20 04:20:49;;;;;;;93.40;30.70;;;;;;;-3.24;73.70;101096.66;99429;1174;81629;-63
2021/03/20 04:23:01;;;;;;;81.00;27.10;;;;;;;-3.20;73.62;101106.13;99450;1174;67160;-62
2021/03/20 04:25:22;;;;;;;81.87;30.20;;;;;;;-3.23;74.23;101106.30;99457;1173;87237;-61
2021/03/20 04:27:33;;;;;;;38.75;14.40;;;;;;;-3.22;73.91;101107.16;99466;1174;75619;-61
2021/03/20 04:29:46;;;;;;;38.65;13.80;;;;;;;-3.19;73.63;101110.48;99461;1172;89404;-61
2021/03/20 04:31:54;;;;;;;;;;;;;;;-3.20;73.72;101108.77;99468;1172;82660;-62
2021/03/20 04:34:06;;;;;;;19.70;8.00;;;;;;;-3.25;73.85;101110.83;99484;1167;66975;-63
2021/03/20 04:36:19;;;;;;;36.57;14.53;;;;;;;-3.27;73.55;101114.48;99450;1174;87913;-61
2021/03/20 04:38:26;;;;;;;40.10;16.50;;;;;;;-3.30;73.50;101114.66;99482;1172;75921;-61
2021/03/20 04:40:42;;;;;;;33.85;13.45;;;;;;;-3.34;74.10;101124.52;99448;1172;89009;-62
2021/03/20 04:42:47;;;;;;;21.00;8.93;;;;;;;-3.33;73.60;101117.46;99445;1172;83005;-64
2021/03/20 04:44:54;;;;;;;26.00;11.00;;;;;;;-3.35;73.73;101119.34;99469;1168;66980;-64
2021/03/20 04:47:05;;;;;;;22.10;8.90;;;;;;;-3.37;73.94;101127.33;99462;1174;87951;-62
2021/03/20 04:49:31;;;;;;;33.30;15.20;;;;;;;-3.37;73.73;101122.05;99457;1171;74603;-63
2021/03/20 04:51:43;;;;;;;68.25;35.05;;;;;;;-3.32;73.95;101124.42;99451;1172;89952;-64
2021/03/20 04:53:51;;;;;;;37.80;20.50;;;;;;;-3.38;73.73;101125.64;99453;1171;83145;-63
2021/03/20 04:56:03;;;;;;;16.25;9.70;;;;;;;-3.31;74.00;101123.50;99458;1172;66850;-62
2021/03/20 04:58:17;;;;;;;20.50;12.00;;;;;;;-3.26;73.57;101134.66;99449;1172;87387;-64
2021/03/20 05:00:31;;;;;;;13.40;6.90;;;;;;;-3.32;73.38;101130.56;99482;1171;75328;-64
2021/03/20 05:02:43;;;;;;;14.70;6.60;;;;;;;-3.26;73.91;101138.16;99445;1174;89278;-63
2021/03/20 05:04:52;;;;;;;52.13;19.67;;;;;;;-3.28;73.66;101140.05;99446;1172;82296;-62
2021/03/20 05:07:01;;;;;;;24.63;9.10;;;;;;;-3.27;73.75;101136.45;99468;1174;66951;-62
2021/03/20 05:09:13;;;;;;;67.30;20.20;;;;;;;-3.27;73.67;101139.09;99432;1171;88111;-61
2021/03/20 05:11:33;;;;;;;69.30;22.40;;;;;;;-3.32;73.27;101148.20;99465;1172;75399;-62
2021/03/20 05:13:48;;;;;;;57.00;18.00;;;;;;;-3.28;73.70;101145.33;99456;1171;89796;-63
2021/03/20 05:16:02;;;;;;;28.97;11.27;;;;;;;-3.33;73.42;101152.66;99427;1172;82436;-63
2021/03/20 05:18:08;;;;;;;43.83;17.30;;;;;;;-3.28;73.17;101144.47;99452;1168;66811;-63
2021/03/20 05:20:14;;;;;;;38.47;16.27;;;;;;;-3.20;72.97;101144.91;99436;1174;88132;-63
2021/03/20 05:22:25;;;;;;;23.40;9.80;;;;;;;-3.19;73.45;101149.27;99465;1174;75813;-63
2021/03/20 05:24:36;;;;;;;14.35;5.65;;;;;;;-3.14;72.70;101153.36;99453;1174;89103;-63
2021/03/20 05:26:41;;;;;;;9.80;5.00;;;;;;;-3.14;72.62;101158.64;99448;1173;82948;-62
2021/03/20 05:28:47;;;;;;;9.90;5.40;;;;;;;-3.04;73.27;101153.69;99461;1157;67211;-62
2021/03/20 05:30:52;;;;;;;19.00;8.43;;;;;;;-3.07;72.54;101160.00;99427;1168;86255;-62
2021/03/20 05:32:57;;;;;;;17.75;9.05;;;;;;;-2.97;72.48;101159.50;99453;1175;75974;-62
2021/03/20 05:35:07;;;;;;;15.60;5.80;;;;;;;-2.95;72.99;101165.55;99442;1175;89499;-62
2021/03/20 05:37:24;;;;;;;18.90;11.23;;;;;;;-2.92;72.21;101162.73;99427;1175;82422;-62
2021/03/20 05:39:30;;;;;;;27.15;16.75;;;;;;;-2.88;72.72;101164.28;99445;1168;66866;-63
2021/03/20 05:42:02;;;;;;;24.90;13.30;;;;;;;-2.86;72.86;101168.55;99419;1175;87668;-63
2021/03/20 05:44:25;;;;;;;12.15;5.50;;;;;;;-2.84;72.25;101169.30;99445;1175;75819;-62
2021/03/20 05:46:42;;;;;;;32.40;17.90;;;;;;;-2.82;72.18;101171.84;99441;1170;89114;-65
2021/03/20 05:49:20;;;;;;;15.70;8.20;;;;;;;-2.70;72.02;101173.81;99439;1168;82705;-62
2021/03/20 05:51:48;;;;;;;60.40;29.60;;;;;;;-2.68;72.21;101172.79;99439;1175;67155;-63
2021/03/20 05:54:22;;;;;;;66.40;23.85;;;;;;;-2.54;72.49;101177.30;99430;1174;87761;-63
2021/03/20 05:56:41;;;;;;;46.50;17.40;;;;;;;-2.50;72.07;101171.73;99450;1174;74878;-62
2021/03/20 05:59:08;;;;;;;86.80;29.40;;;;;;;-2.43;71.82;101182.83;99450;1168;89519;-62
2021/03/20 06:01:23;;;;;;;114.80;34.77;;;;;;;-2.39;71.81;101181.72;99414;1171;82175;-62
2021/03/20 06:04:03;;;;;;;42.70;16.40;;;;;;;-2.37;72.19;101187.77;99460;1171;66886;-64
2021/03/20 06:06:37;;;;;;;87.10;30.20;;;;;;;-2.20;71.58;101185.02;99432;1174;86084;-64
2021/03/20 06:09:05;;;;;;;75.55;27.35;;;;;;;-2.14;70.52;101189.09;99454;1174;75913;-62
2021/03/20 06:11:27;;;;;;;51.20;22.10;;;;;;;-2.17;70.77;101189.27;99437;1168;89441;-62
2021/03/20 06:14:02;;;;;;;20.65;12.10;;;;;;;-2.14;70.72;101189.09;99437;1172;82292;-63
2021/03/20 06:16:24;;;;;;;12.50;7.40;;;;;;;-2.08;70.96;101191.36;99440;1167;66878;-64
2021/03/20 06:18:56;;;;;;;23.97;15.17;;;;;;;-2.04;70.18;101192.90;99442;1174;87790;-62
2021/03/20 06:21:09;;;;;;;17.80;11.50;;;;;;;-1.95;70.50;101182.60;99448;1171;74772;-64
2021/03/20 06:23:51;;;;;;;13.23;8.13;;;;;;;-1.93;70.67;101190.47;99450;1174;89390;-63
2021/03/20 06:26:05;;;;;;;27.20;11.25;;;;;;;-1.82;70.75;101190.69;99427;1171;81836;-63
2021/03/20 06:28:13;;;;;;;34.30;12.80;;;;;;;-1.85;70.55;101191.73;99456;1171;66956;-63
2021/03/20 06:30:33;;;;;;;21.60;9.85;;;;;;;-1.78;69.77;101189.55;99448;1174;86439;-63
2021/03/20 06:32:45;;;;;;;36.10;13.50;;;;;;;-1.68;69.93;101192.52;99460;1174;76026;-62
2021/03/20 06:35:00;;;;;;;14.70;7.20;;;;;;;-1.54;70.34;101192.53;99443;1174;89522;-64
2021/03/20 06:37:23;;;;;;;49.20;19.20;;;;;;;-1.43;70.21;101190.91;99444;1171;81471;-63
2021/03/20 06:39:38;;;;;;;31.20;12.80;;;;;;;-1.30;69.57;101197.19;99467;1168;66885;-63
2021/03/20 06:41:50;;;;;;;53.90;21.65;;;;;;;-1.27;69.58;101193.49;99440;1167;87912;-64
2021/03/20 06:44:03;;;;;;;48.70;17.80;;;;;;;-1.13;69.16;101203.23;99461;1174;76191;-64
2021/03/20 06:46:16;;;;;;;27.70;11.70;;;;;;;-1.01;68.88;101205.96;99451;1167;88801;-66
2021/03/20 06:48:28;;;;;;;32.85;19.95;;;;;;;-0.84;69.37;101204.90;99436;1174;83216;-64
2021/03/20 06:50:39;;;;;;;15.20;8.00;;;;;;;-0.68;68.32;101205.63;99450;1168;67255;-64
2021/03/20 06:52:57;;;;;;;9.85;5.70;;;;;;;-0.49;67.96;101213.25;99436;1171;87696;-64
2021/03/20 06:55:07;;;;;;;9.30;4.90;;;;;;;-0.45;67.75;101205.01;99455;1167;78499;-65
2021/03/20 06:57:13;;;;;;;8.75;4.20;;;;;;;-0.32;67.63;101215.66;99461;1174;89342;-64
2021/03/20 06:59:24;;;;;;;15.45;8.65;;;;;;;-0.25;67.50;101216.98;99432;1171;81539;-65
2021/03/20 07:01:42;;;;;;;28.60;13.80;;;;;;;-0.12;67.55;101208.11;99445;1174;66675;-66
2021/03/20 07:04:19;;;;;;;20.97;10.17;;;;;;;0.04;67.26;101215.90;99448;1174;87900;-66
2021/03/20 07:06:37;;;;;;;29.70;13.70;;;;;;;0.20;67.08;101223.68;99442;1170;75551;-65
2021/03/20 07:08:52;;;;;;;26.70;12.60;;;;;;;0.35;66.88;101220.00;99446;1175;90349;-63
2021/03/20 07:11:01;;;;;;;24.45;12.95;;;;;;;0.39;66.24;101224.14;99421;1175;81715;-62
2021/03/20 07:13:22;;;;;;;13.57;6.27;;;;;;;0.43;65.85;101215.88;99447;1168;66858;-62
2021/03/20 07:15:27;;;;;;;34.10;16.55;;;;;;;0.65;66.18;101219.70;99442;1174;87789;-62
2021/03/20 07:17:37;;;;;;;20.70;10.10;;;;;;;1.11;65.87;101220.84;99450;1174;75430;-63
2021/03/20 07:19:55;;;;;;;11.60;6.30;;;;;;;1.99;64.29;101211.69;99433;1174;89934;-63
2021/03/20 07:22:26;;;;;;;16.90;9.25;;;;;;;2.11;64.00;101221.44;99422;1174;82332;-62
2021/03/20 07:24:37;;;;;;;11.40;5.70;;;;;;;2.19;63.03;101219.05;99459;1174;66899;-63
2021/03/20 07:26:56;;;;;;;10.80;5.45;;;;;;;2.07;62.86;101219.95;99448;1174;87916;-63
2021/03/20 07:29:03;;;;;;;17.50;10.70;;;;;;;1.93;62.42;101230.79;99452;1168;76047;-63
2021/03/20 07:31:11;;;;;;;8.73;5.00;;;;;;;1.80;62.15;101238.85;99456;1173;89257;-64
2021/03/20 07:33:32;;;;;;;11.45;6.70;;;;;;;1.69;61.54;101233.45;99427;1174;82582;-64
2021/03/20 07:35:42;;;;;;;7.75;4.80;;;;;;;1.78;61.76;101232.80;99455;1174;66896;-65
2021/03/20 07:37:47;;;;;;;;;;;;;;;1.93;61.75;101246.77;99438;1174;86489;-64
2021/03/20 07:39:58;;;;;;;6.85;4.00;;;;;;;2.06;61.35;101234.27;99442;1174;75906;-64
2021/03/20 07:42:07;;;;;;;9.60;5.10;;;;;;;2.06;61.88;101247.59;99459;1174;89525;-64
2021/03/20 07:44:12;;;;;;;10.60;5.10;;;;;;;2.43;61.69;101242.98;99422;1172;82202;-64
2021/03/20 07:46:19;;;;;;;15.15;10.70;;;;;;;2.45;60.93;101247.23;99449;1174;66791;-63
2021/03/20 07:48:28;;;;;;;10.80;7.03;;;;;;;2.49;60.80;101242.53;99450;1168;87183;-63
2021/03/20 07:50:37;;;;;;;11.60;6.80;;;;;;;2.59;60.29;101247.03;99457;1172;75681;-62
2021/03/20 07:52:43;;;;;;;11.20;8.80;;;;;;;3.30;60.11;101240.54;99445;1171;89287;-61
2021/03/20 07:55:12;;;;;;;8.45;5.90;;;;;;;4.74;59.48;101229.34;99415;1174;82693;-67
2021/03/20 07:57:19;;;;;;;11.65;6.50;;;;;;;6.02;57.24;101240.27;99446;1168;66914;-62
2021/03/20 07:59:30;;;;;;;12.50;5.75;;;;;;;6.26;54.84;101233.50;99438;1174;87531;-62
2021/03/20 08:01:39;;;;;;;8.67;4.90;;;;;;;6.52;55.62;101237.31;99447;1174;76108;-63
2021/03/20 08:03:56;;;;;;;9.30;5.90;;;;;;;6.57;54.38;101238.70;99426;1174;89197;-62
2021/03/20 08:06:16;;;;;;;9.15;5.35;;;;;;;6.58;53.13;101240.41;99424;1174;81677;-60
2021/03/20 08:08:25;;;;;;;8.47;5.70;;;;;;;6.15;52.43;101244.39;99443;1174;67085;-64
2021/03/20 08:10:33;;;;;;;7.40;4.60;;;;;;;5.64;52.70;101249.05;99440;1174;86464;-65
2021/03/20 08:12:55;;;;;;;8.40;4.90;;;;;;;5.42;53.44;101259.97;99462;1174;75597;-66
2021/03/20 08:15:05;;;;;;;6.90;3.90;;;;;;;5.22;52.32;101253.69;99450;1171;89358;-61
2021/03/20 08:17:18;;;;;;;8.90;5.00;;;;;;;5.64;53.45;101249.91;99434;1171;81974;-61
2021/03/20 08:19:24;;;;;;;9.73;6.53;;;;;;;6.02;52.54;101259.89;99463;1174;66854;-63
2021/03/20 08:22:14;;;;;;;8.80;6.00;;;;;;;6.63;51.46;101254.25;99447;1172;86758;-62
2021/03/20 08:24:45;;;;;;;7.90;4.60;;;;;;;7.44;50.53;101254.47;99453;1174;75576;-62
2021/03/20 08:27:03;;;;;;;7.55;5.00;;;;;;;8.72;47.39;101250.61;99439;1168;89527;-62
2021/03/20 08:29:22;;;;;;;8.25;5.50;;;;;;;9.30;47.47;101245.44;99431;1171;82322;-65
2021/03/20 08:31:54;;;;;;;9.85;4.90;;;;;;;10.13;47.30;101249.16;99459;1174;66897;-65
2021/03/20 08:34:18;;;;;;;8.10;5.20;;;;;;;9.38;45.17;101264.35;99440;1174;87057;-65
2021/03/20 08:36:48;;;;;;;15.95;10.85;;;;;;;8.70;44.35;101264.24;99463;1168;75609;-65
2021/03/20 08:39:06;;;;;;;12.40;8.70;;;;;;;9.03;44.66;101259.09;99440;1175;89393;-66
2021/03/20 08:41:25;;;;;;;16.45;9.60;;;;;;;9.39;44.31;101257.96;99432;1171;81495;-66
2021/03/20 08:44:09;;;;;;;9.37;5.53;;;;;;;9.58;43.96;101249.63;99447;1168;67189;-65
2021/03/20 08:46:36;;;;;;;11.95;8.55;;;;;;;9.88;43.48;101254.46;99446;1174;88279;-66
2021/03/20 08:48:51;;;;;;;11.10;6.35;;;;;;;10.59;42.75;101256.63;99451;1174;76286;-62
2021/03/20 08:51:14;;;;;;;8.10;6.00;;;;;;;10.73;41.10;101255.96;99444;1174;90074;-62
2021/03/20 08:53:28;;;;;;;7.40;4.40;;;;;;;10.61;41.47;101262.70;99427;1174;82063;-62
2021/03/20 08:56:02;;;;;;;10.00;6.50;;;;;;;9.89;40.36;101261.53;99450;1174;66891;-61
2021/03/20 08:58:21;;;;;;;10.43;6.93;;;;;;;9.37;40.95;101260.80;99444;1168;86842;-65
2021/03/20 09:00:34;;;;;;;10.30;6.40;;;;;;;8.81;41.21;101269.38;99441;1168;74983;-64
2021/03/20 09:02:45;;;;;;;10.70;7.20;;;;;;;8.63;41.88;101270.39;99447;1174;89376;-63
2021/03/20 09:04:54;;;;;;;8.55;6.70;;;;;;;8.42;42.11;101265.34;99427;1171;81783;-63
2021/03/20 09:07:06;;;;;;;5.25;3.50;;;;;;;8.43;42.07;101267.05;99448;1174;66933;-63
2021/03/20 09:09:23;;;;;;;6.30;3.00;;;;;;;8.58;41.25;101270.86;99453;1173;86892;-64
2021/03/20 09:11:42;;;;;;;5.07;2.50;;;;;;;7.99;41.08;101267.89;99445;1174;74395;-64
2021/03/20 09:13:52;;;;;;;5.15;2.95;;;;;;;8.57;42.69;101273.73;99457;1171;89204;-63
2021/03/20 09:16:06;;;;;;;6.60;2.90;;;;;;;8.94;41.07;101270.80;99424;1174;82863;-64
2021/03/20 09:18:18;;;;;;;4.30;2.55;;;;;;;8.62;40.55;101271.41;99458;1168;66963;-62
2021/03/20 09:20:39;;;;;;;5.50;2.80;;;;;;;8.27;39.27;101280.31;99444;1168;87288;-62
2021/03/20 09:22:50;;;;;;;4.85;2.95;;;;;;;8.29;40.59;101276.47;99438;1174;75412;-62
2021/03/20 09:25:06;;;;;;;5.30;2.70;;;;;;;7.81;40.59;101275.92;99440;1175;89429;-64
2021/03/20 09:27:15;;;;;;;5.13;2.60;;;;;;;7.52;40.35;101281.45;99440;1174;81766;-64
2021/03/20 09:29:25;;;;;;;4.90;2.80;;;;;;;7.76;40.58;101282.74;99443;1175;67219;-61
2021/03/20 09:32:14;;;;;;;4.05;2.40;;;;;;;7.80;39.76;101289.53;99434;1171;86814;-62
2021/03/20 09:34:32;;;;;;;6.20;2.90;;;;;;;7.68;39.56;101287.04;99441;1174;75930;-64
2021/03/20 09:36:47;;;;;;;5.50;2.75;;;;;;;7.55;41.31;101286.51;99433;1175;89827;-64
2021/03/20 09:38:54;;;;;;;6.90;3.10;;;;;;;7.34;41.35;101288.58;99421;1168;82861;-60
2021/03/20 09:41:02;;;;;;;4.90;2.60;;;;;;;7.32;41.30;101293.27;99439;1167;66937;-62
2021/03/20 09:44:08;;;;;;;4.45;2.30;;;;;;;7.32;41.84;101289.73;99433;1175;87548;-61
2021/03/20 09:46:54;;;;;;;6.15;2.75;;;;;;;7.61;40.49;101285.07;99451;1175;74909;-62
2021/03/20 09:49:00;;;;;;;5.20;3.00;;;;;;;7.24;40.79;101298.53;99441;1175;89770;-64
2021/03/20 09:51:53;;;;;;;4.10;2.50;;;;;;;7.21;40.94;101298.81;99430;1175;82360;-63
2021/03/20 09:54:42;;;;;;;4.90;2.70;;;;;;;7.58;41.03;101291.59;99443;1175;66915;-64
2021/03/20 09:56:48;;;;;;;4.60;2.30;;;;;;;7.67;40.86;101295.23;99436;1171;87920;-63
2021/03/20 09:58:53;;;;;;;5.80;2.90;;;;;;;7.46;40.07;101300.01;99440;1168;74978;-62
2021/03/20 10:01:26;;;;;;;4.20;2.50;;;;;;;7.21;40.92;101303.34;99458;1171;89375;-60
2021/03/20 10:03:56;;;;;;;4.67;2.53;;;;;;;7.08;41.42;101303.66;99428;1168;82157;-62
2021/03/20 10:06:28;;;;;;;4.70;3.00;;;;;;;6.91;40.22;101299.88;99447;1175;66878;-63
2021/03/20 10:08:44;;;;;;;3.10;1.50;;;;;;;6.80;40.41;101310.77;99439;1175;87970;-61
2021/03/20 10:10:53;;;;;;;2.90;1.20;;;;;;;6.74;40.19;101314.02;99433;1175;76334;-61
2021/03/20 10:13:14;;;;;;;4.95;2.05;;;;;;;6.67;40.94;101312.05;99449;1172;88218;-62
2021/03/20 10:15:32;;;;;;;4.10;2.10;;;;;;;6.21;41.12;101310.88;99427;1175;82570;-62
2021/03/20 10:18:17;;;;;;;4.30;2.55;;;;;;;5.90;42.00;101304.77;99444;1171;66946;-61
2021/03/20 10:20:37;;;;;;;4.63;2.40;;;;;;;5.47;42.03;101300.61;99439;1175;87606;-63
2021/03/20 10:22:55;;;;;;;3.93;2.10;;;;;;;5.33;42.23;101302.67;99444;1173;75047;-63